This demonstration page uses our WeatherBlox Daily Observations layout. Learn more.

38.89511, -77.03637

Hourly Observations for February 4, 2020

Temp ( °F °C ) Dew Point ( °F °C ) Humidity (%) Winds ( mph kmh ) Pressure ( in mb ) Visibility ( mi km ) Precip ( " mm )
12:52 am 00:52 Cloudy 55 12.8 39 3.9 55 55 S 10 17 29.81 1010 10 16.0934 0 0
1:52 am 01:52 Cloudy 55 12.8 40 4.4 57 57 S 8 13 29.81 1010 10 16.0934 0 0
2:52 am 02:52 Cloudy 55 12.8 40 4.4 57 57 S 9 15 29.8 1009 10 16.0934 0 0
3:52 am 03:52 Cloudy 56 13.3 40 4.4 55 55 S 7 11 29.8 1009 10 16.0934 0.001 0.001
4:52 am 04:52 Cloudy with Light Rain 57 13.9 40 4.4 53 53 S 6 9 29.81 1010 10 16.0934 0.001 0.001
5:52 am 05:52 Cloudy with Light Rain 51 10.6 44 6.7 77 77 SSE 3 6 29.83 1010 10 16.0934 0.01 0.254
6:52 am 06:52 Cloudy with Light Rain 50 10 44 6.7 80 80 S 7 11 29.86 1011 10 16.0934 0.001 0.001
7:52 am 07:52 Mostly Cloudy 51 10.6 46 7.8 83 83 Calm 29.88 1012 10 16.0934 0.001 0.001
8:52 am 08:52 Cloudy with Light Rain 52 11.1 46 7.8 80 80 S 8 13 29.89 1012 10 16.0934 0.01 0.254
9:52 am 09:52 Cloudy 53 11.7 47 8.3 80 80 S 8 13 29.88 1012 10 16.0934 0.001 0.001
10:52 am 10:52 Cloudy 55 12.8 48 8.9 77 77 S 8 13 29.89 1012 10 16.0934 0 0
11:52 am 11:52 Mostly Cloudy 58 14.4 49 9.4 72 72 S 6 9 29.86 1011 10 16.0934 0 0
12:52 pm 12:52 Cloudy 59 15 48 8.9 67 67 S 9 15 29.82 1010 10 16.0934 0 0
1:52 pm 13:52 Cloudy 61 16.1 49 9.4 65 65 S 6 9 29.82 1010 10 16.0934 0 0
2:52 pm 14:52 Cloudy 64 17.8 48 8.9 56 56 S 7 11 29.8 1009 10 16.0934 0 0
3:52 pm 15:52 Cloudy 62 16.7 48 8.9 60 60 S 7 11 29.78 1009 10 16.0934 0 0
4:52 pm 16:52 Cloudy 62 16.7 48 8.9 60 60 S 6 9 29.79 1009 10 16.0934 0 0
5:52 pm 17:52 Cloudy 61 16.1 48 8.9 63 63 SSW 7 11 29.8 1009 10 16.0934 0 0
6:52 pm 18:52 Cloudy with Light Rain 60 15.6 49 9.4 67 67 S 8 13 29.8 1009 10 16.0934 0.001 0.001
7:52 pm 19:52 Cloudy 62 16.7 48 8.9 60 60 S 7 11 29.8 1009 10 16.0934 0.001 0.001
8:52 pm 20:52 Cloudy 58 14.4 47 8.3 67 67 S 7 11 29.78 1009 10 16.0934 0.001 0.001
9:52 pm 21:52 Cloudy 57 13.9 47 8.3 69 69 S 7 11 29.79 1009 10 16.0934 0 0
10:52 pm 22:52 Mostly Cloudy 61 16.1 49 9.4 65 65 SW 3 6 29.79 1009 10 16.0934 0 0
11:52 pm 23:52 Mostly Cloudy 54 12.2 48 8.9 80 80 S 3 6 29.78 1009 10 16.0934 0 0

Powered by AerisWeather